Time;durP1;ratioP1;P1;durP2;ratioP2;P2;SDS_P1;SDS_P2;PMS_P1;PMS_P2;Temp;Humidity;BMP_temperature;BMP_pressure;BME280_temperature;BME280_humidity;BME280_pressure;Samples;Min_cycle;Max_cycle;Signal;HPM_P1;HPM_P2
2021/08/25 00:02:14;;;;;;;9.93;4.73;;;12.90;1.00;;;;;;5066415;28;20503;-78
2021/08/25 00:04:59;;;;;;;6.87;4.70;;;12.80;1.00;;;;;;5060878;28;20410;-78
2021/08/25 00:07:29;;;;;;;7.53;4.57;;;12.70;1.00;;;;;;5052843;28;20421;-77
2021/08/25 00:09:59;;;;;;;7.83;4.53;;;12.70;1.00;;;;;;5058788;28;20409;-77
2021/08/25 00:12:30;;;;;;;7.87;4.47;;;12.70;1.00;;;;;;5071902;28;20793;-77
2021/08/25 00:15:07;;;;;;;5.00;3.73;;;12.70;1.00;;;;;;5059912;28;20418;-76
2021/08/25 00:17:36;;;;;;;7.70;4.53;;;12.60;1.00;;;;;;5062076;28;20439;-75
2021/08/25 00:20:06;;;;;;;9.17;4.47;;;12.60;1.00;;;;;;5054694;28;20462;-76
2021/08/25 00:22:35;;;;;;;18.37;4.40;;;12.60;1.00;;;;;;5052912;28;20446;-75
2021/08/25 00:25:11;;;;;;;6.83;4.40;;;12.60;1.00;;;;;;5052959;28;20414;-76
2021/08/25 00:27:41;;;;;;;5.67;4.57;;;12.60;1.00;;;;;;5068514;28;20421;-76
2021/08/25 00:30:07;;;;;;;11.67;3.93;;;12.60;1.00;;;;;;5064932;28;20413;-77
2021/08/25 00:32:33;;;;;;;7.57;4.13;;;12.60;1.00;;;;;;5058233;28;20473;-77
2021/08/25 00:34:59;;;;;;;9.43;4.80;;;12.60;1.00;;;;;;5052289;28;20433;-77
2021/08/25 00:37:24;;;;;;;8.23;4.50;;;12.60;1.00;;;;;;5068600;28;20187;-77
2021/08/25 00:39:50;;;;;;;6.47;4.83;;;12.60;1.00;;;;;;5059739;28;20254;-77
2021/08/25 00:42:16;;;;;;;11.73;5.00;;;12.60;1.00;;;;;;5073264;28;20278;-77
2021/08/25 00:44:42;;;;;;;6.90;4.67;;;12.60;1.00;;;;;;5070549;28;20163;-76
2021/08/25 00:47:08;;;;;;;9.20;4.77;;;12.50;1.00;;;;;;5075723;28;20208;-76
2021/08/25 00:49:45;;;;;;;7.20;4.80;;;12.60;1.00;;;;;;5062743;28;20623;-76
2021/08/25 00:52:17;;;;;;;10.03;4.80;;;12.50;1.00;;;;;;5056339;28;20479;-76
2021/08/25 00:54:47;;;;;;;11.87;4.80;;;12.50;1.00;;;;;;5067951;28;20454;-75
2021/08/25 00:57:23;;;;;;;12.93;4.57;;;12.60;1.00;;;;;;5076175;28;20919;-76
2021/08/25 00:59:59;;;;;;;10.87;4.10;;;12.50;1.00;;;;;;5060809;28;20418;-77
2021/08/25 01:02:57;;;;;;;8.97;4.70;;;12.50;1.00;;;;;;5058431;28;20529;-76
2021/08/25 01:05:23;;;;;;;6.90;4.27;;;12.50;1.00;;;;;;5048113;28;20419;-76
2021/08/25 01:07:49;;;;;;;7.70;4.10;;;12.40;1.00;;;;;;5017276;28;20407;-76
2021/08/25 01:10:29;;;;;;;8.30;4.67;;;12.40;1.00;;;;;;5000609;28;20438;-76
2021/08/25 01:12:59;;;;;;;9.27;5.10;;;12.40;1.00;;;;;;5033841;28;21123;-76
2021/08/25 01:15:43;;;;;;;6.17;4.60;;;12.40;1.00;;;;;;5033923;28;20442;-76
2021/08/25 01:18:13;;;;;;;6.60;4.60;;;12.40;1.00;;;;;;5014054;28;20456;-76
2021/08/25 01:20:42;;;;;;;6.00;4.60;;;12.40;1.00;;;;;;5015332;28;20415;-76
2021/08/25 01:23:11;;;;;;;17.67;5.77;;;12.40;1.00;;;;;;5033442;28;20466;-76
2021/08/25 01:25:42;;;;;;;12.20;4.40;;;12.40;1.00;;;;;;5015298;28;20929;-76
2021/08/25 01:28:17;;;;;;;6.90;4.60;;;12.40;1.00;;;;;;5032600;28;20445;-76
2021/08/25 01:30:49;;;;;;;5.63;4.37;;;12.40;1.00;;;;;;5030917;28;20431;-76
2021/08/25 01:33:27;;;;;;;12.40;5.03;;;12.40;1.00;;;;;;5033918;28;20410;-76
2021/08/25 01:36:16;;;;;;;5.57;4.20;;;12.40;1.00;;;;;;5026789;28;20511;-75
2021/08/25 01:38:52;;;;;;;6.13;3.90;;;12.40;1.00;;;;;;5015925;28;20900;-76
2021/08/25 01:41:29;;;;;;;4.90;3.77;;;12.40;1.00;;;;;;5021047;28;20414;-76
2021/08/25 01:44:00;;;;;;;9.73;4.47;;;12.40;1.00;;;;;;5054441;28;20628;-76
2021/08/25 01:46:53;;;;;;;6.00;4.30;;;12.30;1.00;;;;;;5071415;28;20406;-77
2021/08/25 01:49:23;;;;;;;5.80;4.20;;;12.30;1.00;;;;;;5067430;28;20413;-78
2021/08/25 01:51:57;;;;;;;5.43;4.53;;;12.30;1.00;;;;;;5069124;28;20414;-78
2021/08/25 01:54:29;;;;;;;7.00;4.40;;;12.30;1.00;;;;;;5055370;28;20390;-77
2021/08/25 01:57:06;;;;;;;10.23;4.03;;;12.30;1.00;;;;;;5060562;28;20905;-77
2021/08/25 01:59:36;;;;;;;7.67;4.20;;;12.30;1.00;;;;;;5073263;28;20405;-77
2021/08/25 02:02:06;;;;;;;5.33;4.43;;;12.30;1.00;;;;;;5055633;28;20429;-79
2021/08/25 02:04:41;;;;;;;7.83;4.23;;;12.30;1.00;;;;;;5059860;28;20751;-77
2021/08/25 02:07:07;;;;;;;6.80;4.60;;;12.20;1.00;;;;;;5075080;28;20396;-78
2021/08/25 02:09:35;;;;;;;6.93;4.00;;;12.20;1.00;;;;;;5069671;28;20410;-77
2021/08/25 02:12:11;;;;;;;9.53;4.40;;;12.30;1.00;;;;;;5073752;28;20815;-77
2021/08/25 02:14:41;;;;;;;9.87;4.37;;;12.20;1.00;;;;;;5074876;28;20857;-77
2021/08/25 02:17:59;;;;;;;8.20;4.17;;;12.20;1.00;;;;;;5074882;28;20413;-78
2021/08/25 02:20:25;;;;;;;8.83;3.90;;;12.20;1.00;;;;;;5061555;28;20432;-78
2021/08/25 02:22:59;;;;;;;5.50;4.10;;;12.20;1.00;;;;;;5074774;28;20460;-77
2021/08/25 02:25:25;;;;;;;6.30;3.63;;;;;;;;;;5074681;28;20182;-77
2021/08/25 02:27:51;;;;;;;10.93;4.10;;;12.20;1.00;;;;;;5069560;28;20857;-78
2021/08/25 02:30:21;;;;;;;6.27;3.50;;;12.20;1.00;;;;;;5055305;28;20513;-77
2021/08/25 02:32:53;;;;;;;4.67;3.77;;;12.10;1.00;;;;;;5055198;28;20183;-77
2021/08/25 02:35:19;;;;;;;4.60;3.80;;;12.20;1.00;;;;;;5062748;28;20516;-77
2021/08/25 02:37:45;;;;;;;12.27;4.30;;;12.20;1.00;;;;;;5054583;28;20933;-77
2021/08/25 02:40:11;;;;;;;16.60;3.87;;;12.20;1.00;;;;;;5060332;28;20190;-78
2021/08/25 02:42:39;;;;;;;10.37;3.70;;;12.20;1.00;;;;;;5064988;28;20229;-77
2021/08/25 02:45:07;;;;;;;5.90;4.20;;;12.20;1.00;;;;;;5074287;28;20424;-77
2021/08/25 02:47:47;;;;;;;6.47;3.50;;;12.20;1.00;;;;;;5074202;28;20870;-78
2021/08/25 02:50:13;;;;;;;6.20;3.80;;;12.20;1.00;;;;;;5072242;28;20417;-77
2021/08/25 02:52:41;;;;;;;6.33;3.40;;;12.80;1.00;;;;;;5074392;28;20443;-77
2021/08/25 02:55:23;;;;;;;8.13;4.03;;;12.20;1.00;;;;;;5074351;28;20251;-77
2021/08/25 02:57:59;;;;;;;5.33;3.57;;;12.30;1.00;;;;;;5074341;28;20391;-77
2021/08/25 03:00:32;;;;;;;9.40;3.27;;;12.30;1.00;;;;;;5072709;28;20847;-77
2021/08/25 03:02:59;;;;;;;3.37;2.90;;;12.20;1.00;;;;;;5072321;28;20453;-78
2021/08/25 03:05:30;;;;;;;5.17;3.73;;;12.20;1.00;;;;;;5073483;28;20401;-77
2021/08/25 03:07:59;;;;;;;5.90;3.17;;;12.20;1.00;;;;;;5073063;28;20799;-77
2021/08/25 03:10:25;;;;;;;5.20;3.23;;;12.30;1.00;;;;;;5054962;28;20467;-78
2021/08/25 03:12:51;;;;;;;13.77;4.17;;;12.20;1.00;;;;;;5062305;28;20429;-78
2021/08/25 03:15:17;;;;;;;4.20;3.03;;;12.20;1.00;;;;;;5063609;28;20587;-77
2021/08/25 03:17:47;;;;;;;7.27;3.30;;;12.20;1.00;;;;;;5059194;28;20576;-76
2021/08/25 03:20:13;;;;;;;5.47;3.37;;;12.40;1.00;;;;;;5068033;28;20458;-75
2021/08/25 03:22:41;;;;;;;7.07;3.83;;;12.30;1.00;;;;;;5064272;28;20461;-76
2021/08/25 03:25:29;;;;;;;8.27;3.27;;;12.20;1.00;;;;;;5073961;28;20401;-76
2021/08/25 03:28:11;;;;;;;5.10;3.80;;;12.10;1.00;;;;;;5071281;28;20520;-76
2021/08/25 03:30:56;;;;;;;9.30;3.50;;;12.10;1.00;;;;;;5067798;28;20938;-76
2021/08/25 03:33:23;;;;;;;8.00;4.10;;;12.10;1.00;;;;;;5060917;28;20433;-76
2021/08/25 03:36:17;;;;;;;9.23;3.67;;;12.20;1.00;;;;;;5053588;28;20440;-76
2021/08/25 03:38:53;;;;;;;7.00;3.33;;;12.00;1.00;;;;;;5053936;28;20491;-75
2021/08/25 03:41:30;;;;;;;5.80;3.93;;;12.00;1.00;;;;;;5064492;28;20504;-76
2021/08/25 03:44:00;;;;;;;7.97;3.50;;;12.00;1.00;;;;;;5073913;28;20449;-76
2021/08/25 03:46:47;;;;;;;8.47;3.37;;;12.00;1.00;;;;;;5061415;28;20462;-77
2021/08/25 03:49:17;;;;;;;8.60;3.73;;;11.90;1.00;;;;;;5053706;28;20440;-77
2021/08/25 03:52:00;;;;;;;9.60;3.70;;;11.90;1.00;;;;;;5068987;28;20409;-78
2021/08/25 03:54:30;;;;;;;6.30;3.03;;;12.00;1.00;;;;;;5073191;28;20408;-78
2021/08/25 03:56:56;;;;;;;5.07;3.37;;;11.90;1.00;;;;;;5072829;28;20414;-77
2021/08/25 03:59:23;;;;;;;8.20;3.40;;;11.90;1.00;;;;;;5073756;28;20740;-77
2021/08/25 04:01:53;;;;;;;4.13;3.00;;;11.80;1.00;;;;;;5058028;28;20406;-77
2021/08/25 04:04:24;;;;;;;5.83;3.60;;;11.80;1.00;;;;;;5053623;28;20405;-78
2021/08/25 04:06:49;;;;;;;5.17;2.93;;;11.80;1.00;;;;;;5053223;28;20402;-80
2021/08/25 04:09:15;;;;;;;4.43;3.83;;;11.80;1.00;;;;;;5062402;28;20695;-88
2021/08/25 04:11:41;;;;;;;5.70;3.47;;;11.70;1.00;;;;;;5060910;28;20634;-81
2021/08/25 04:17:35;;;;;;;5.63;3.23;;;11.70;1.00;;;;;;5055723;28;20945;-88
2021/08/25 04:20:17;;;;;;;7.20;3.37;;;11.70;1.00;;;;;;5066672;28;20436;-88
2021/08/25 04:26:05;;;;;;;7.07;3.13;;;11.60;1.00;;;;;;5057454;28;20381;-78
2021/08/25 04:28:35;;;;;;;8.40;4.10;;;11.60;1.00;;;;;;5070413;28;20519;-77
2021/08/25 04:31:01;;;;;;;9.67;3.60;;;11.60;1.00;;;;;;5067131;28;20248;-78
2021/08/25 04:33:29;;;;;;;7.13;3.73;;;11.60;1.00;;;;;;5080200;28;20454;-78
2021/08/25 04:35:59;;;;;;;8.23;3.90;;;11.60;1.00;;;;;;5065230;28;20207;-78
2021/08/25 04:38:25;;;;;;;7.10;3.83;;;11.70;1.00;;;;;;5066718;28;20413;-78
2021/08/25 04:41:17;;;;;;;7.20;3.60;;;11.60;1.00;;;;;;5077017;28;20416;-78
2021/08/25 04:43:59;;;;;;;8.50;3.70;;;11.60;1.00;;;;;;5076780;28;20460;-78
2021/08/25 04:46:59;;;;;;;7.00;3.50;;;11.60;1.00;;;;;;5076388;28;20432;-78
2021/08/25 04:49:25;;;;;;;3.10;2.70;;;11.60;1.00;;;;;;5075218;28;20413;-75
2021/08/25 04:51:51;;;;;;;5.27;3.37;;;11.60;1.00;;;;;;5076401;28;20404;-75
2021/08/25 04:54:18;;;;;;;12.40;4.03;;;11.70;1.00;;;;;;5076534;28;20244;-75
2021/08/25 04:57:05;;;;;;;4.87;3.60;;;11.70;1.00;;;;;;5076393;28;20175;-75
2021/08/25 04:59:47;;;;;;;6.70;3.57;;;11.70;1.00;;;;;;5068213;28;20421;-75
2021/08/25 05:02:23;;;;;;;7.17;3.43;;;11.80;1.00;;;;;;5072955;28;20454;-79
2021/08/25 05:05:17;;;;;;;5.10;3.10;;;11.90;1.00;;;;;;5066444;28;20782;-75
2021/08/25 05:07:43;;;;;;;4.33;3.20;;;11.90;1.00;;;;;;5076069;28;20421;-75
2021/08/25 05:10:09;;;;;;;5.37;3.47;;;12.10;1.00;;;;;;5076354;28;20386;-75
2021/08/25 05:12:41;;;;;;;4.40;3.53;;;12.00;1.00;;;;;;5076332;28;20191;-75
2021/08/25 05:15:12;;;;;;;8.47;3.70;;;12.10;1.00;;;;;;5075613;28;20906;-75
2021/08/25 05:17:47;;;;;;;3.50;3.20;;;12.20;1.00;;;;;;5076288;28;20413;-75
2021/08/25 05:20:23;;;;;;;5.20;2.93;;;12.20;1.00;;;;;;5074189;28;20464;-75
2021/08/25 05:22:50;;;;;;;6.10;3.20;;;12.30;1.00;;;;;;5076057;28;20445;-75
2021/08/25 05:25:17;;;;;;;4.27;3.13;;;12.30;1.00;;;;;;5072061;28;20910;-75
2021/08/25 05:27:53;;;;;;;4.93;3.20;;;12.50;1.00;;;;;;5060663;28;20404;-75
2021/08/25 05:30:24;;;;;;;4.10;3.13;;;12.60;1.00;;;;;;5064944;28;20439;-75
2021/08/25 05:32:53;;;;;;;4.10;2.87;;;12.80;1.00;;;;;;5058661;28;20434;-75
2021/08/25 05:35:20;;;;;;;6.50;3.23;;;12.70;1.00;;;;;;5056327;28;20453;-75
2021/08/25 05:37:47;;;;;;;13.57;3.70;;;12.70;1.00;;;;;;5069929;28;20430;-75
2021/08/25 05:40:23;;;;;;;9.90;3.10;;;12.90;1.00;;;;;;5055761;28;20440;-76
2021/08/25 05:42:53;;;;;;;8.70;3.40;;;12.90;1.00;;;;;;5069143;28;20513;-75
2021/08/25 05:45:19;;;;;;;4.97;3.03;;;12.90;1.00;;;;;;5062903;28;20933;-75
2021/08/25 05:47:45;;;;;;;6.57;3.07;;;13.10;1.00;;;;;;5073006;28;20441;-78
2021/08/25 05:50:17;;;;;;;4.47;3.10;;;13.10;1.00;;;;;;5060657;28;20188;-77
2021/08/25 05:52:59;;;;;;;4.47;2.57;;;13.20;1.00;;;;;;5055758;28;20184;-78
2021/08/25 05:55:25;;;;;;;4.33;3.30;;;13.30;1.00;;;;;;5068283;28;20448;-78
2021/08/25 05:57:51;;;;;;;3.50;2.73;;;13.40;1.00;;;;;;5065673;28;20490;-78
2021/08/25 06:00:25;;;;;;;4.53;2.70;;;13.40;1.00;;;;;;5062480;28;20167;-78
2021/08/25 06:02:51;;;;;;;3.87;2.90;;;13.50;1.00;;;;;;5074739;28;20293;-76
2021/08/25 06:05:17;;;;;;;7.73;2.33;;;13.60;1.00;;;;;;5077986;28;20479;-75
2021/08/25 06:07:43;;;;;;;7.23;3.00;;;13.80;1.00;;;;;;5066964;28;20556;-76
2021/08/25 06:10:12;;;;;;;4.30;2.87;;;13.90;1.00;;;;;;5076646;28;20187;-75
2021/08/25 06:12:38;;;;;;;4.40;3.13;;;13.90;1.00;;;;;;5067113;28;20182;-75
2021/08/25 06:15:05;;;;;;;6.13;2.60;;;14.00;1.00;;;;;;5054842;28;20501;-75
2021/08/25 06:17:32;;;;;;;5.90;2.70;;;14.00;1.00;;;;;;5064918;28;20927;-77
2021/08/25 06:19:59;;;;;;;3.50;2.87;;;14.00;1.00;;;;;;5073930;28;20502;-78
2021/08/25 06:22:25;;;;;;;9.63;2.97;;;14.10;1.00;;;;;;5073433;28;20915;-83
2021/08/25 06:24:51;;;;;;;3.07;2.50;;;14.10;1.00;;;;;;5064661;28;20513;-78
2021/08/25 06:27:17;;;;;;;8.33;2.60;;;14.20;1.00;;;;;;5067625;28;20168;-78
2021/08/25 06:29:53;;;;;;;5.57;2.87;;;14.30;1.00;;;;;;5074984;28;20606;-78
2021/08/25 06:32:26;;;;;;;7.70;3.00;;;14.40;1.00;;;;;;5062191;28;20461;-77
2021/08/25 06:34:52;;;;;;;4.50;2.50;;;14.50;1.00;;;;;;5053538;28;20401;-75
2021/08/25 06:37:18;;;;;;;4.10;2.53;;;14.50;1.00;;;;;;5054322;28;20401;-76
2021/08/25 06:39:43;;;;;;;8.97;2.70;;;14.60;1.00;;;;;;5051594;28;20547;-76
2021/08/25 06:42:09;;;;;;;2.10;1.90;;;14.60;1.00;;;;;;5055531;28;20297;-76
2021/08/25 06:44:34;;;;;;;4.60;2.90;;;14.70;1.00;;;;;;5073567;28;20205;-76
2021/08/25 06:47:00;;;;;;;5.83;3.00;;;14.80;1.00;;;;;;5073092;28;20563;-76
2021/08/25 06:49:26;;;;;;;4.93;2.63;;;15.00;1.00;;;;;;5073678;28;20657;-77
2021/08/25 06:51:51;;;;;;;3.63;2.80;;;15.00;1.00;;;;;;5061521;28;20250;-77
2021/08/25 06:54:17;;;;;;;11.07;2.80;;;15.00;1.00;;;;;;5053489;28;20240;-78
2021/08/25 06:56:43;;;;;;;4.70;2.47;;;15.10;1.00;;;;;;5063320;28;20166;-77
2021/08/25 06:59:08;;;;;;;3.90;2.93;;;15.30;1.00;;;;;;5072955;28;20175;-77
2021/08/25 07:01:34;;;;;;;4.27;2.70;;;15.30;1.00;;;;;;5072712;28;20179;-77
2021/08/25 07:03:59;;;;;;;3.80;2.63;;;15.40;1.00;;;;;;5073305;28;20187;-78
2021/08/25 07:06:25;;;;;;;5.73;2.80;;;15.50;1.00;;;;;;5072965;28;20170;-77
2021/08/25 07:08:51;;;;;;;4.73;2.73;;;15.50;1.00;;;;;;5072978;28;20158;-77
2021/08/25 07:11:16;;;;;;;3.87;2.80;;;15.50;1.00;;;;;;5068745;28;20164;-77
2021/08/25 07:13:42;;;;;;;5.40;3.30;;;15.60;1.00;;;;;;5065896;28;20175;-77
2021/08/25 07:16:07;;;;;;;3.63;2.50;;;15.80;1.00;;;;;;5051898;28;20690;-77
2021/08/25 07:18:34;;;;;;;3.27;2.70;;;15.90;1.00;;;;;;5051988;28;20241;-77
2021/08/25 07:21:00;;;;;;;8.50;2.67;;;15.90;1.00;;;;;;5053302;28;20597;-77
2021/08/25 07:23:26;;;;;;;8.70;3.20;;;16.00;1.00;;;;;;5052739;28;20976;-77
2021/08/25 07:25:51;;;;;;;9.43;3.23;;;16.10;1.00;;;;;;5056624;28;20521;-78
2021/08/25 07:28:17;;;;;;;2.37;1.97;;;16.10;1.00;;;;;;5052926;28;20153;-78
2021/08/25 07:30:42;;;;;;;3.83;2.73;;;16.20;1.00;;;;;;5055545;28;20289;-78
2021/08/25 07:33:13;;;;;;;4.37;2.77;;;16.20;1.00;;;;;;5066567;28;20534;-76
2021/08/25 07:35:40;;;;;;;5.23;2.73;;;16.40;1.00;;;;;;5072805;28;20148;-76
2021/08/25 07:38:05;;;;;;;9.77;3.13;;;16.50;1.00;;;;;;5072342;28;20478;-76
2021/08/25 07:40:31;;;;;;;3.63;2.47;;;16.60;1.00;;;;;;5072752;28;20421;-76
2021/08/25 07:42:57;;;;;;;4.03;2.37;;;16.60;1.00;;;;;;5067679;28;20207;-76
2021/08/25 07:45:23;;;;;;;6.93;3.00;;;16.70;1.00;;;;;;5052790;28;20227;-76
2021/08/25 07:47:48;;;;;;;8.93;2.70;;;16.90;1.00;;;;;;5064919;28;20251;-76
2021/08/25 07:50:14;;;;;;;11.00;3.20;;;16.90;1.00;;;;;;5073063;28;20168;-76
2021/08/25 07:52:40;;;;;;;4.10;2.63;;;17.00;1.00;;;;;;5064538;28;20164;-76
2021/08/25 07:55:06;;;;;;;4.00;2.67;;;17.10;1.00;;;;;;5074089;28;20509;-76
2021/08/25 07:57:32;;;;;;;11.97;2.40;;;17.10;1.00;;;;;;5076725;28;20199;-76
2021/08/25 07:59:57;;;;;;;3.03;2.43;;;17.20;1.00;;;;;;5075424;28;20377;-76
2021/08/25 08:02:23;;;;;;;4.27;2.47;;;17.40;1.00;;;;;;5066564;28;20284;-76
2021/08/25 08:04:48;;;;;;;18.77;3.43;;;17.40;1.00;;;;;;5056659;28;20160;-76
2021/08/25 08:07:14;;;;;;;7.03;3.10;;;17.60;1.00;;;;;;5068084;28;20695;-76
2021/08/25 08:09:40;;;;;;;8.10;3.00;;;17.70;1.00;;;;;;5076236;28;20209;-76
2021/08/25 08:12:07;;;;;;;4.50;2.60;;;17.70;1.00;;;;;;5071672;28;20173;-76
2021/08/25 08:14:33;;;;;;;3.57;2.80;;;17.90;1.00;;;;;;5056522;28;20407;-76
2021/08/25 08:17:01;;;;;;;5.33;2.80;;;17.90;1.00;;;;;;5073315;28;20409;-76
2021/08/25 08:19:30;;;;;;;4.97;2.50;;;18.00;1.00;;;;;;5076552;28;20860;-77
2021/08/25 08:21:59;;;;;;;5.87;2.50;;;17.40;1.00;;;;;;5069383;28;20417;-77
2021/08/25 08:24:25;;;;;;;7.00;3.10;;;18.10;1.00;;;;;;5059514;28;20426;-77
2021/08/25 08:26:51;;;;;;;8.93;2.73;;;18.10;1.00;;;;;;5061257;28;20444;-77
2021/08/25 08:29:17;;;;;;;4.67;2.87;;;18.30;1.00;;;;;;5076117;28;20786;-78
2021/08/25 08:31:42;;;;;;;5.10;2.70;;;18.30;1.00;;;;;;5074005;28;20580;-78
2021/08/25 08:34:08;;;;;;;5.70;2.67;;;18.40;1.00;;;;;;5062697;28;20269;-76
2021/08/25 08:36:34;;;;;;;3.37;2.30;;;18.50;1.00;;;;;;5055932;28;20712;-76
2021/08/25 08:39:00;;;;;;;3.83;2.90;;;18.50;1.00;;;;;;5054479;28;20175;-76
2021/08/25 08:41:25;;;;;;;4.57;2.73;;;18.70;1.00;;;;;;5055886;28;20488;-76
2021/08/25 08:43:52;;;;;;;4.17;2.70;;;18.70;1.00;;;;;;5054428;28;20609;-76
2021/08/25 08:46:20;;;;;;;9.97;2.53;;;18.90;1.00;;;;;;5063286;28;20215;-76
2021/08/25 08:48:47;;;;;;;4.10;2.10;;;19.00;1.00;;;;;;5075959;28;20428;-76
2021/08/25 08:51:17;;;;;;;6.00;2.20;;;19.10;1.00;;;;;;5075166;28;20412;-76
2021/08/25 08:53:43;;;;;;;6.10;3.07;;;19.20;1.00;;;;;;5066405;28;20419;-76
2021/08/25 08:56:08;;;;;;;3.70;3.20;;;19.20;1.00;;;;;;5054147;28;20744;-76
2021/08/25 08:58:39;;;;;;;4.00;2.67;;;19.40;1.00;;;;;;5054279;28;20172;-76
2021/08/25 09:01:06;;;;;;;5.93;2.97;;;19.50;1.00;;;;;;5063397;28;20275;-76
2021/08/25 09:03:36;;;;;;;4.10;3.23;;;19.50;1.00;;;;;;5073485;28;20981;-76
2021/08/25 09:06:02;;;;;;;5.93;3.10;;;19.60;1.00;;;;;;5075541;28;20417;-77
2021/08/25 09:08:38;;;;;;;7.33;2.73;;;19.70;1.00;;;;;;5074772;28;20417;-77
2021/08/25 09:11:09;;;;;;;5.73;3.17;;;19.80;1.00;;;;;;5075219;28;20400;-77
2021/08/25 09:13:35;;;;;;;5.00;3.20;;;19.90;1.00;;;;;;5064069;28;20396;-77
2021/08/25 09:16:06;;;;;;;4.63;2.67;;;20.00;1.00;;;;;;5069170;28;20504;-77
2021/08/25 09:18:33;;;;;;;3.80;2.43;;;20.10;1.00;;;;;;5074375;28;20447;-80
2021/08/25 09:20:59;;;;;;;3.90;2.40;;;20.20;1.00;;;;;;5075307;28;20869;-79
2021/08/25 09:23:27;;;;;;;5.00;2.80;;;20.30;1.00;;;;;;5065092;28;20799;-79
2021/08/25 09:26:00;;;;;;;4.50;3.00;;;20.40;1.00;;;;;;5054858;28;20477;-77
2021/08/25 09:28:32;;;;;;;6.80;2.90;;;20.50;1.00;;;;;;5061815;28;20401;-77
2021/08/25 09:30:59;;;;;;;4.30;3.20;;;20.60;1.00;;;;;;5059529;28;20435;-76
2021/08/25 09:33:43;;;;;;;3.90;2.97;;;20.60;1.00;;;;;;5055495;28;20380;-76
2021/08/25 09:36:12;;;;;;;7.87;2.87;;;20.70;1.00;;;;;;5075913;28;20401;-76
2021/08/25 09:38:54;;;;;;;5.10;2.80;;;20.70;1.00;;;;;;5074555;28;20844;-76
2021/08/25 09:41:20;;;;;;;9.20;3.30;;;20.90;1.00;;;;;;5075471;28;20398;-76
2021/08/25 09:43:49;;;;;;;5.53;2.80;;;20.90;1.00;;;;;;5075404;28;20441;-76
2021/08/25 09:46:18;;;;;;;4.70;3.20;;;20.90;1.00;;;;;;5075369;28;20402;-76
2021/08/25 09:48:46;;;;;;;7.03;3.07;;;20.90;1.00;;;;;;5075245;28;20418;-76
2021/08/25 09:51:20;;;;;;;8.93;3.37;;;20.90;1.00;;;;;;5075581;28;20410;-77
2021/08/25 09:53:49;;;;;;;5.20;3.00;;;21.00;1.00;;;;;;5075399;28;20398;-77
2021/08/25 09:56:32;;;;;;;5.30;3.00;;;21.00;1.00;;;;;;5073154;28;20507;-78
2021/08/25 09:58:58;;;;;;;5.40;3.77;;;21.10;1.00;;;;;;5079861;28;20395;-77
2021/08/25 10:01:24;;;;;;;6.03;3.20;;;21.20;1.00;;;;;;5078494;28;20426;-77
2021/08/25 10:03:50;;;;;;;5.20;3.30;;;21.20;1.00;;;;;;5073867;28;20192;-77
2021/08/25 10:06:17;;;;;;;4.87;3.43;;;21.40;1.00;;;;;;5073964;28;20393;-77
2021/08/25 10:08:43;;;;;;;4.27;2.77;;;21.50;1.00;;;;;;5073154;28;20790;-77
2021/08/25 10:11:09;;;;;;;8.13;3.17;;;21.50;1.00;;;;;;5060649;28;20428;-77
2021/08/25 10:13:35;;;;;;;5.73;3.33;;;21.50;1.00;;;;;;5066432;28;20596;-77
2021/08/25 10:16:01;;;;;;;4.27;2.63;;;21.60;1.00;;;;;;5052689;28;20442;-77
2021/08/25 10:18:37;;;;;;;5.10;3.30;;;21.90;1.00;;;;;;5068320;28;20197;-77
2021/08/25 10:21:36;;;;;;;5.03;3.03;;;21.90;1.00;;;;;;5074130;28;20150;-76
2021/08/25 10:24:05;;;;;;;9.63;3.30;;;22.00;1.00;;;;;;5072716;28;20783;-76
2021/08/25 10:26:32;;;;;;;4.57;3.20;;;22.20;1.00;;;;;;5073423;28;20415;-76
2021/08/25 10:29:07;;;;;;;6.20;3.43;;;22.30;1.00;;;;;;5073606;28;20714;-76
2021/08/25 10:31:53;;;;;;;4.53;2.90;;;22.50;1.00;;;;;;5063911;28;20429;-76
2021/08/25 10:34:22;;;;;;;3.97;3.10;;;22.70;1.00;;;;;;5070314;28;20430;-76
2021/08/25 10:36:48;;;;;;;4.70;3.30;;;22.70;1.00;;;;;;5060499;28;20908;-76
2021/08/25 10:39:31;;;;;;;4.97;3.30;;;22.80;1.00;;;;;;5053917;28;20467;-76
2021/08/25 10:42:00;;;;;;;5.83;3.40;;;22.90;1.00;;;;;;5053383;28;20399;-76
2021/08/25 10:44:40;;;;;;;4.40;3.30;;;23.20;1.00;;;;;;5056587;28;20450;-76
2021/08/25 10:47:07;;;;;;;3.97;2.90;;;23.50;1.00;;;;;;5068261;28;20422;-76
2021/08/25 10:49:47;;;;;;;3.70;3.33;;;23.60;1.00;;;;;;5071592;28;20409;-76
2021/08/25 10:52:27;;;;;;;4.07;2.73;;;23.60;1.00;;;;;;5054166;28;20415;-76
2021/08/25 10:54:53;;;;;;;5.80;3.07;;;23.40;1.00;;;;;;5051096;28;20399;-77
2021/08/25 10:57:24;;;;;;;6.47;3.10;;;23.20;1.00;;;;;;5069190;28;20502;-77
2021/08/25 10:59:51;;;;;;;4.17;2.80;;;23.10;1.00;;;;;;5071069;28;20219;-77
2021/08/25 11:02:17;;;;;;;6.17;2.97;;;23.10;1.00;;;;;;5064009;28;20545;-77
2021/08/25 11:04:47;;;;;;;4.33;3.13;;;25.80;1.00;;;;;;5071576;28;20602;-77
2021/08/25 11:07:13;;;;;;;8.43;3.30;;;;;;;;;;5070658;28;20422;-77
2021/08/25 11:09:50;;;;;;;3.37;2.60;;;23.10;1.00;;;;;;5081636;28;20487;-81
2021/08/25 11:12:22;;;;;;;8.80;3.50;;;23.00;1.00;;;;;;5072712;28;20400;-81
2021/08/25 11:14:55;;;;;;;7.93;3.60;;;22.90;1.00;;;;;;5070270;28;20770;-77
2021/08/25 11:17:38;;;;;;;4.37;3.23;;;22.90;1.00;;;;;;5054386;28;20421;-77
2021/08/25 11:20:06;;;;;;;3.70;2.73;;;22.90;1.00;;;;;;5063213;28;20431;-76
2021/08/25 11:22:44;;;;;;;7.60;3.30;;;22.90;1.00;;;;;;5070368;28;20460;-77
2021/08/25 11:25:17;;;;;;;4.37;2.80;;;22.90;1.00;;;;;;5053475;28;20417;-77
2021/08/25 11:27:51;;;;;;;6.20;3.10;;;23.20;1.00;;;;;;5100465;28;20416;-77
2021/08/25 11:30:29;;;;;;;3.67;2.90;;;23.50;1.00;;;;;;5093651;28;20406;-77
2021/08/25 11:33:05;;;;;;;6.70;3.57;;;23.80;1.00;;;;;;5093758;28;20399;-77
2021/08/25 11:35:33;;;;;;;6.40;3.17;;;24.10;1.00;;;;;;5071864;28;20408;-76
2021/08/25 11:38:02;;;;;;;3.63;2.80;;;24.10;1.00;;;;;;5062204;28;20415;-76
2021/08/25 11:40:29;;;;;;;5.00;3.20;;;24.10;1.00;;;;;;5056270;28;20828;-76
2021/08/25 11:42:55;;;;;;;6.23;3.17;;;24.30;1.00;;;;;;5055054;28;20454;-76
2021/08/25 11:45:28;;;;;;;7.40;3.90;;;24.30;1.00;;;;;;5068727;28;20416;-76
2021/08/25 11:47:58;;;;;;;8.63;3.20;;;24.40;1.00;;;;;;5064055;28;20233;-76
2021/08/25 11:50:26;;;;;;;4.17;2.83;;;24.40;1.00;;;;;;5064290;28;20408;-76
2021/08/25 11:52:53;;;;;;;6.20;3.00;;;24.40;1.00;;;;;;5072614;28;20396;-80
2021/08/25 11:55:19;;;;;;;6.23;3.80;;;24.30;1.00;;;;;;5070936;28;20471;-79
2021/08/25 11:57:48;;;;;;;5.73;3.37;;;24.30;1.00;;;;;;5065031;28;20418;-80
2021/08/25 12:00:20;;;;;;;6.50;4.50;;;24.20;1.00;;;;;;5065534;28;20419;-80
2021/08/25 12:02:56;;;;;;;4.63;3.17;;;24.30;1.00;;;;;;5052531;28;20452;-80
2021/08/25 12:05:29;;;;;;;8.30;3.53;;;24.30;1.00;;;;;;5052584;28;20392;-80
2021/08/25 12:08:08;;;;;;;11.53;3.10;;;24.50;1.00;;;;;;5069985;28;20426;-83
2021/08/25 12:10:43;;;;;;;5.40;2.87;;;24.50;1.00;;;;;;5071692;28;20452;-82
2021/08/25 12:13:12;;;;;;;3.60;2.97;;;24.50;1.00;;;;;;5072382;28;20400;-83
2021/08/25 12:15:52;;;;;;;6.13;2.90;;;24.60;1.00;;;;;;5066362;28;20450;-83
2021/08/25 12:18:20;;;;;;;6.77;3.40;;;24.70;1.00;;;;;;5058405;28;20571;-82
2021/08/25 12:20:52;;;;;;;7.27;2.93;;;24.80;1.00;;;;;;5072712;28;20474;-80
2021/08/25 12:23:20;;;;;;;6.80;3.57;;;24.80;1.00;;;;;;5070861;28;20839;-79
2021/08/25 12:25:56;;;;;;;7.50;3.10;;;24.90;1.00;;;;;;5069800;28;20462;-80
2021/08/25 12:28:41;;;;;;;5.93;2.90;;;;;;;;;;5064143;28;20781;-80
2021/08/25 12:31:24;;;;;;;3.90;3.10;;;24.80;1.00;;;;;;5067431;28;20428;-79
2021/08/25 12:33:53;;;;;;;5.17;3.60;;;24.80;1.00;;;;;;5052298;28;20405;-80
2021/08/25 12:36:36;;;;;;;3.80;2.70;;;24.80;1.00;;;;;;5052539;28;20400;-80
2021/08/25 12:39:05;;;;;;;3.20;2.77;;;24.80;1.00;;;;;;5062583;28;20416;-80
2021/08/25 12:41:31;;;;;;;5.37;2.63;;;24.60;1.00;;;;;;5074547;28;20407;-80
2021/08/25 12:43:57;;;;;;;5.97;3.50;;;24.60;1.00;;;;;;5075467;28;20959;-80
2021/08/25 12:46:23;;;;;;;4.67;3.00;;;24.60;1.00;;;;;;5075442;28;20502;-80
2021/08/25 12:48:49;;;;;;;3.13;2.60;;;24.40;1.00;;;;;;5075620;28;20489;-80
2021/08/25 12:51:18;;;;;;;4.07;3.00;;;;;;;;;;5073830;28;20513;-84
2021/08/25 12:53:44;;;;;;;5.07;2.87;;;;;;;;;;5074280;28;20553;-84
2021/08/25 12:56:10;;;;;;;9.30;3.67;;;;;;;;;;5075637;28;20415;-79
2021/08/25 12:58:35;;;;;;;2.87;2.50;;;24.90;1.00;;;;;;5073672;28;20930;-82
2021/08/25 13:01:01;;;;;;;6.03;3.23;;;;;;;;;;5072453;28;20396;-82
2021/08/25 13:03:27;;;;;;;4.30;3.43;;;;;;;;;;5072021;28;20205;-82
2021/08/25 13:05:53;;;;;;;4.10;2.73;;;24.90;1.00;;;;;;5056199;28;20400;-82
2021/08/25 13:08:19;;;;;;;6.27;3.10;;;24.90;1.00;;;;;;5075139;28;20776;-79
2021/08/25 13:10:44;;;;;;;3.90;2.70;;;24.90;1.00;;;;;;5073810;28;20169;-79
2021/08/25 13:13:12;;;;;;;4.60;3.17;;;;;;;;;;5075029;28;20607;-79
2021/08/25 13:15:38;;;;;;;5.10;3.13;;;;;;;;;;5075266;28;20630;-79
2021/08/25 13:18:04;;;;;;;3.73;2.57;;;;;;;;;;5075103;28;20399;-83
2021/08/25 13:20:30;;;;;;;5.23;3.30;;;;;;;;;;5069203;28;20447;-83
2021/08/25 13:22:55;;;;;;;6.87;2.63;;;25.80;1.00;;;;;;5066437;28;20948;-82
2021/08/25 13:25:21;;;;;;;3.93;2.47;;;;;;;;;;5074640;28;20411;-79